createdAt,value
2022-12-22T00:02:00.754Z,67.77
2022-12-22T00:04:47.113Z,67.95
2022-12-22T00:07:33.408Z,64.09
2022-12-22T00:10:19.760Z,62.60
2022-12-22T00:13:05.876Z,62.37
2022-12-22T00:15:54.166Z,61.79
2022-12-22T00:18:40.315Z,55.83
2022-12-22T00:21:31.552Z,55.64
2022-12-22T00:24:18.016Z,58.28
2022-12-22T00:27:05.263Z,60.44
2022-12-22T00:29:58.312Z,66.06
2022-12-22T00:32:50.607Z,66.65
2022-12-22T00:35:40.759Z,62.43
2022-12-22T00:38:32.594Z,59.33
2022-12-22T00:41:18.739Z,56.46
2022-12-22T00:44:05.381Z,58.07
2022-12-22T00:46:53.632Z,59.59
2022-12-22T00:49:41.427Z,60.17
2022-12-22T00:52:28.001Z,59.52
2022-12-22T00:55:14.457Z,64.64
2022-12-22T00:58:02.719Z,70.20
2022-12-22T01:00:48.926Z,68.02
2022-12-22T01:03:35.539Z,64.69
2022-12-22T01:06:22.682Z,61.04
2022-12-22T01:09:09.210Z,55.58
2022-12-22T01:11:55.411Z,55.61
2022-12-22T01:14:41.855Z,57.10
2022-12-22T01:17:29.130Z,58.31
2022-12-22T01:20:15.219Z,60.46
2022-12-22T01:23:01.427Z,66.11
2022-12-22T01:25:48.011Z,67.28
2022-12-22T01:28:35.075Z,63.83
2022-12-22T01:31:48.488Z,63.47
2022-12-22T01:34:35.383Z,60.88
2022-12-22T01:37:21.884Z,61.06
2022-12-22T01:40:08.518Z,61.38
2022-12-22T01:42:54.881Z,60.79
2022-12-22T01:45:44.976Z,60.44
2022-12-22T01:48:37.381Z,60.62
2022-12-22T01:51:39.486Z,60.56
2022-12-22T01:54:28.184Z,59.81
2022-12-22T01:57:14.435Z,59.70
2022-12-22T02:00:01.642Z,59.63
2022-12-22T02:02:58.642Z,60.08
2022-12-22T02:05:45.607Z,60.44
2022-12-22T02:08:52.324Z,60.39
2022-12-22T02:11:58.803Z,60.19
2022-12-22T02:15:04.925Z,61.17
2022-12-22T02:18:22.066Z,60.26
2022-12-22T02:21:14.397Z,60.21
2022-12-22T02:24:14.541Z,59.89
2022-12-22T02:27:05.001Z,59.56
2022-12-22T02:29:55.609Z,59.63
2022-12-22T02:32:45.036Z,59.73
2022-12-22T02:35:35.291Z,59.56
2022-12-22T02:38:43.569Z,59.61
2022-12-22T02:41:46.678Z,59.76
2022-12-22T02:44:45.427Z,60.06
2022-12-22T02:47:49.919Z,60.57
2022-12-22T02:50:43.145Z,61.11
2022-12-22T02:53:32.979Z,60.68
2022-12-22T02:56:23.771Z,61.14
2022-12-22T02:59:10.531Z,61.20
2022-12-22T03:01:58.665Z,61.51
2022-12-22T03:04:45.406Z,61.95
2022-12-22T03:07:32.915Z,62.00
2022-12-22T03:10:19.227Z,64.26
2022-12-22T03:13:05.639Z,61.63
2022-12-22T03:15:51.753Z,59.34
2022-12-22T03:18:38.351Z,56.53
2022-12-22T03:21:24.599Z,56.92
2022-12-22T03:24:11.215Z,58.76
2022-12-22T03:26:39.316Z,59.79
2022-12-22T03:29:06.964Z,64.07
2022-12-22T03:31:34.758Z,69.28
2022-12-22T03:34:02.689Z,65.17
2022-12-22T03:36:30.534Z,61.45
2022-12-22T03:38:58.550Z,59.36
2022-12-22T03:41:45.046Z,56.60
2022-12-22T03:44:31.625Z,57.21
2022-12-22T03:46:59.378Z,59.51
2022-12-22T03:49:27.162Z,61.16
2022-12-22T03:51:54.886Z,64.95
2022-12-22T03:54:24.941Z,65.81
2022-12-22T03:56:53.343Z,65.51
2022-12-22T03:59:21.167Z,66.03
2022-12-22T04:01:54.837Z,66.32
2022-12-22T04:04:25.561Z,67.43
2022-12-22T04:06:54.423Z,67.95
2022-12-22T04:09:22.744Z,68.24
2022-12-22T04:12:09.484Z,69.27
2022-12-22T04:14:37.361Z,67.16
2022-12-22T04:17:06.886Z,64.48
2022-12-22T04:19:34.680Z,62.41
2022-12-22T04:22:02.315Z,61.52
2022-12-22T04:24:30.042Z,60.83
2022-12-22T04:26:57.725Z,59.96
2022-12-22T04:29:25.457Z,58.51
2022-12-22T04:31:53.303Z,58.22
2022-12-22T04:34:21.227Z,59.82
2022-12-22T04:36:49.002Z,61.77
2022-12-22T04:39:16.704Z,63.36
2022-12-22T04:41:45.135Z,65.67
2022-12-22T04:44:12.884Z,66.01
2022-12-22T04:46:40.712Z,66.03
2022-12-22T04:49:08.426Z,66.25
2022-12-22T04:51:36.149Z,66.46
2022-12-22T05:06:00.716Z,68.32
2022-12-22T05:08:28.491Z,67.95
2022-12-22T05:10:56.190Z,68.15
2022-12-22T05:13:23.909Z,67.70
2022-12-22T05:15:51.659Z,67.97
2022-12-22T05:18:19.363Z,68.90
2022-12-22T05:20:47.023Z,69.61
2022-12-22T05:23:14.703Z,69.29
2022-12-22T05:25:42.450Z,68.89
2022-12-22T05:28:10.169Z,68.50
2022-12-22T05:30:37.903Z,68.19
2022-12-22T05:33:05.761Z,68.04
2022-12-22T05:35:33.472Z,68.46
2022-12-22T05:38:01.073Z,68.30
2022-12-22T05:40:28.761Z,67.87
2022-12-22T05:42:56.443Z,67.56
2022-12-22T05:45:24.075Z,67.25
2022-12-22T05:47:52.917Z,67.14
2022-12-22T05:50:24.342Z,66.63
2022-12-22T05:53:06.403Z,66.14
2022-12-22T05:55:34.420Z,66.57
2022-12-22T05:58:02.499Z,66.21
2022-12-22T06:00:32.104Z,66.39
2022-12-22T06:03:00.098Z,66.28
2022-12-22T06:05:27.921Z,66.42
2022-12-22T06:07:55.722Z,66.48
2022-12-22T06:10:23.868Z,66.90
2022-12-22T06:12:51.643Z,67.03
2022-12-22T06:15:20.113Z,67.32
2022-12-22T06:17:48.129Z,66.20
2022-12-22T06:20:15.849Z,65.64
2022-12-22T06:22:43.568Z,65.35
2022-12-22T06:25:17.708Z,64.93
2022-12-22T06:27:47.807Z,65.32
2022-12-22T06:30:16.566Z,65.05
2022-12-22T06:32:44.280Z,64.88
2022-12-22T06:35:12.159Z,65.26
2022-12-22T06:37:40.034Z,64.71
2022-12-22T06:40:08.643Z,63.55
2022-12-22T06:42:54.559Z,63.17
2022-12-22T06:45:22.799Z,62.78
2022-12-22T06:47:50.594Z,64.41
2022-12-22T06:50:18.330Z,60.50
2022-12-22T06:52:45.963Z,55.08
2022-12-22T06:55:13.681Z,54.52
2022-12-22T06:57:41.326Z,56.11
2022-12-22T07:00:09.939Z,57.46
2022-12-22T07:05:32.145Z,61.59
2022-12-22T07:08:07.671Z,65.54
2022-12-22T07:10:55.389Z,65.96
2022-12-22T07:13:24.477Z,61.46
2022-12-22T07:16:00.152Z,57.83
2022-12-22T07:18:31.281Z,56.94
2022-12-22T07:21:02.461Z,58.48
2022-12-22T07:23:31.113Z,59.71
2022-12-22T07:25:59.704Z,61.03
2022-12-22T07:28:27.578Z,64.30
2022-12-22T07:30:55.705Z,66.36
2022-12-22T07:33:23.516Z,66.36
2022-12-22T07:36:12.165Z,66.37
2022-12-22T07:38:42.319Z,65.96
2022-12-22T07:41:30.720Z,65.42
2022-12-22T07:44:01.030Z,68.24
2022-12-22T07:46:32.549Z,64.09
2022-12-22T07:49:19.210Z,57.74
2022-12-22T07:51:47.158Z,54.89
2022-12-22T07:54:16.120Z,56.56
2022-12-22T07:56:45.757Z,58.50
2022-12-22T07:59:13.617Z,60.32
2022-12-22T08:01:41.842Z,60.04
2022-12-22T08:04:10.790Z,65.57
2022-12-22T08:06:38.958Z,67.41
2022-12-22T08:09:07.770Z,60.72
2022-12-22T08:11:35.798Z,55.54
2022-12-22T08:14:03.549Z,54.20
2022-12-22T08:16:31.472Z,55.96
2022-12-22T08:18:59.350Z,58.12
2022-12-22T08:21:27.179Z,58.95
2022-12-22T08:23:55.131Z,60.31
2022-12-22T08:26:27.697Z,60.59
2022-12-22T08:28:58.016Z,62.83
2022-12-22T08:31:28.912Z,68.34
2022-12-22T08:33:59.867Z,63.31
2022-12-22T08:36:27.613Z,58.14
2022-12-22T08:38:56.298Z,54.81
2022-12-22T08:41:43.974Z,55.57
2022-12-22T08:44:11.657Z,57.02
2022-12-22T08:46:39.610Z,59.03
2022-12-22T08:49:07.501Z,60.26
2022-12-22T08:51:35.322Z,61.42
2022-12-22T08:54:05.481Z,67.11
2022-12-22T08:56:34.008Z,67.88
2022-12-22T08:59:05.426Z,64.52
2022-12-22T09:01:36.518Z,63.32
2022-12-22T09:04:06.851Z,59.65
2022-12-22T09:06:40.517Z,56.65
2022-12-22T09:09:11.366Z,56.06
2022-12-22T09:11:40.348Z,57.03
2022-12-22T09:14:09.784Z,58.92
2022-12-22T09:16:38.271Z,60.36
2022-12-22T09:19:07.141Z,61.39
2022-12-22T09:21:36.167Z,65.76
2022-12-22T09:24:07.576Z,69.23
2022-12-22T09:26:35.908Z,63.67
2022-12-22T09:29:04.251Z,58.37
2022-12-22T09:31:32.329Z,55.13
2022-12-22T09:34:00.697Z,55.62
2022-12-22T09:36:31.664Z,56.51
2022-12-22T09:39:04.745Z,58.21
2022-12-22T09:41:37.490Z,59.77
2022-12-22T09:44:12.988Z,62.15
2022-12-22T09:46:41.164Z,69.18
2022-12-22T09:49:15.922Z,67.06
2022-12-22T09:51:48.142Z,62.76
2022-12-22T09:54:16.440Z,57.92
2022-12-22T09:56:44.559Z,56.11
2022-12-22T09:59:18.612Z,56.61
2022-12-22T10:01:56.213Z,57.98
2022-12-22T10:04:36.144Z,59.65
2022-12-22T10:07:24.756Z,61.26
2022-12-22T10:09:52.605Z,66.71
2022-12-22T10:12:23.581Z,67.63
2022-12-22T10:14:54.163Z,62.92
2022-12-22T10:17:24.061Z,59.91
2022-12-22T10:19:54.400Z,56.47
2022-12-22T10:22:34.972Z,55.22
2022-12-22T10:25:05.140Z,56.32
2022-12-22T10:27:41.909Z,57.82
2022-12-22T10:30:23.342Z,59.02
2022-12-22T10:33:20.770Z,61.43
2022-12-22T10:35:53.134Z,67.05
2022-12-22T10:38:28.605Z,67.43
2022-12-22T10:41:04.783Z,65.82
2022-12-22T10:43:38.030Z,63.52
2022-12-22T10:46:06.241Z,61.74
2022-12-22T10:48:37.197Z,60.57
2022-12-22T10:51:08.260Z,59.99
2022-12-22T10:53:52.148Z,57.40
2022-12-22T10:56:21.913Z,55.72
2022-12-22T10:59:04.597Z,56.79
2022-12-22T11:01:36.503Z,59.45
2022-12-22T11:04:27.279Z,61.54
2022-12-22T11:06:58.535Z,64.44
2022-12-22T11:09:35.289Z,66.21
2022-12-22T11:12:19.416Z,66.58
2022-12-22T11:14:59.000Z,58.77
2022-12-22T11:17:29.515Z,55.10
2022-12-22T11:20:24.725Z,56.89
2022-12-22T11:22:52.447Z,58.09
2022-12-22T11:25:56.348Z,61.23
2022-12-22T11:29:01.835Z,61.99
2022-12-22T11:31:53.704Z,67.78
2022-12-22T11:34:36.726Z,63.45
2022-12-22T11:37:19.533Z,58.09
2022-12-22T11:39:59.715Z,54.64
2022-12-22T11:42:27.410Z,55.80
2022-12-22T11:45:11.738Z,58.03
2022-12-22T11:47:54.914Z,61.39
2022-12-22T11:51:01.128Z,65.54
2022-12-22T11:53:31.305Z,63.14
2022-12-22T11:56:17.433Z,61.13
2022-12-22T11:59:06.724Z,56.29
2022-12-22T12:02:05.249Z,54.76
2022-12-22T12:04:55.044Z,58.44
2022-12-22T12:07:42.922Z,60.06
2022-12-22T12:10:25.574Z,62.30
2022-12-22T12:13:25.555Z,68.84
2022-12-22T12:16:19.369Z,66.24
2022-12-22T12:19:26.883Z,61.83
2022-12-22T12:22:04.573Z,55.88
2022-12-22T12:24:40.609Z,54.92
2022-12-22T12:27:14.845Z,58.10
2022-12-22T12:32:59.738Z,63.58
2022-12-22T12:35:36.242Z,66.87
2022-12-22T12:39:08.785Z,64.26
2022-12-22T12:41:46.808Z,62.44
2022-12-22T12:44:17.785Z,61.75
2022-12-22T12:46:51.562Z,61.69
2022-12-22T12:49:59.125Z,61.92
2022-12-22T12:52:50.344Z,61.49
2022-12-22T12:55:32.965Z,61.21
2022-12-22T12:58:03.784Z,61.25
2022-12-22T13:00:34.715Z,60.94
2022-12-22T13:03:20.011Z,60.46
2022-12-22T13:06:00.718Z,60.28
2022-12-22T13:08:33.271Z,61.39
2022-12-22T13:11:00.826Z,60.61
2022-12-22T13:13:28.396Z,57.81
2022-12-22T13:16:02.262Z,56.31
2022-12-22T13:18:33.145Z,57.67
2022-12-22T13:21:50.296Z,60.48
2022-12-22T13:24:23.548Z,62.77
2022-12-22T13:26:45.070Z,69.62
2022-12-22T13:29:26.802Z,65.83
2022-12-22T13:32:02.435Z,61.57
2022-12-22T13:37:50.337Z,56.67
2022-12-22T13:40:21.352Z,58.63
2022-12-22T13:42:51.536Z,60.68
2022-12-22T13:45:34.519Z,61.55
2022-12-22T13:48:12.535Z,66.65
2022-12-22T13:50:47.299Z,69.61
2022-12-22T13:53:50.110Z,64.21
2022-12-22T13:56:18.192Z,61.23
2022-12-22T13:58:50.920Z,60.49
2022-12-22T14:01:20.187Z,60.32
2022-12-22T14:04:02.625Z,60.59
2022-12-22T14:06:37.302Z,56.27
2022-12-22T14:09:20.140Z,55.53
2022-12-22T14:12:00.221Z,58.08
2022-12-22T14:14:44.329Z,60.57
2022-12-22T14:17:37.801Z,62.90
2022-12-22T14:20:24.213Z,66.11
2022-12-22T14:22:57.598Z,65.04
2022-12-22T14:25:40.675Z,62.67
2022-12-22T14:28:19.261Z,61.65
2022-12-22T14:30:50.882Z,61.96
2022-12-22T14:33:26.631Z,62.10
2022-12-22T14:36:04.552Z,60.03
2022-12-22T14:38:40.938Z,59.86
2022-12-22T14:41:31.556Z,58.11
2022-12-22T14:44:00.119Z,59.49
2022-12-22T14:46:31.107Z,60.95
2022-12-22T14:49:01.712Z,64.35
2022-12-22T14:51:29.727Z,66.15
2022-12-22T14:53:59.779Z,65.82
2022-12-22T14:56:28.194Z,64.37
2022-12-22T14:59:11.282Z,62.95
2022-12-22T15:01:39.027Z,61.70
2022-12-22T15:04:20.012Z,61.50
2022-12-22T15:06:49.404Z,60.62
2022-12-22T15:09:17.043Z,57.86
2022-12-22T15:11:51.729Z,57.02
2022-12-22T15:14:23.260Z,58.01
2022-12-22T15:16:55.544Z,59.47
2022-12-22T15:19:23.958Z,62.83
2022-12-22T15:21:52.028Z,66.18
2022-12-22T15:24:19.725Z,67.29
2022-12-22T15:26:47.679Z,62.69
2022-12-22T15:29:15.354Z,59.97
2022-12-22T15:31:43.984Z,56.56
2022-12-22T15:34:16.399Z,56.04
2022-12-22T15:36:44.247Z,57.86
2022-12-22T15:39:14.876Z,59.48
2022-12-22T15:41:44.489Z,60.51
2022-12-22T15:44:13.181Z,61.88
2022-12-22T15:46:45.110Z,65.87
2022-12-22T15:49:20.095Z,69.04
2022-12-22T15:51:51.964Z,64.97
2022-12-22T15:54:20.564Z,61.14
2022-12-22T15:56:51.577Z,59.88
2022-12-22T15:59:27.393Z,58.00
2022-12-22T16:02:01.208Z,58.02
2022-12-22T16:04:30.177Z,59.51
2022-12-22T16:06:59.530Z,60.85
2022-12-22T16:09:32.504Z,64.30
2022-12-22T16:12:00.250Z,66.07
2022-12-22T16:14:31.176Z,66.29
2022-12-22T16:17:01.550Z,65.57
2022-12-22T16:19:29.168Z,64.76
2022-12-22T16:21:56.937Z,64.04
2022-12-22T16:24:33.009Z,62.65
2022-12-22T16:27:02.453Z,61.44
2022-12-22T16:29:30.814Z,60.05
2022-12-22T16:32:17.907Z,59.64
2022-12-22T16:34:45.998Z,58.36
2022-12-22T16:37:13.762Z,58.17
2022-12-22T16:39:41.474Z,59.91
2022-12-22T16:44:59.838Z,64.21
2022-12-22T16:47:33.633Z,65.24
2022-12-22T16:50:02.022Z,65.62
2022-12-22T16:52:41.164Z,65.42
2022-12-22T16:55:18.245Z,64.57
2022-12-22T16:57:46.449Z,64.10
2022-12-22T17:00:26.574Z,63.62
2022-12-22T17:03:02.799Z,63.13
2022-12-22T17:05:43.777Z,62.67
2022-12-22T17:08:33.925Z,62.48
2022-12-22T17:11:10.432Z,62.77
2022-12-22T17:13:39.050Z,62.97
2022-12-22T17:16:06.894Z,62.76
2022-12-22T17:18:36.143Z,63.02
2022-12-22T17:21:04.434Z,62.11
2022-12-22T17:23:39.650Z,61.44
2022-12-22T17:26:10.256Z,61.33
2022-12-22T17:28:39.264Z,61.25
2022-12-22T17:31:07.241Z,61.66
2022-12-22T17:33:34.939Z,61.43
2022-12-22T17:36:02.781Z,60.86
2022-12-22T17:38:30.811Z,60.89
2022-12-22T17:40:58.596Z,61.02
2022-12-22T17:43:26.423Z,60.97
2022-12-22T17:45:54.327Z,61.22
2022-12-22T17:48:21.964Z,61.44
2022-12-22T17:50:50.338Z,61.42
2022-12-22T17:53:20.059Z,60.98
2022-12-22T17:58:36.581Z,60.70
2022-12-22T18:01:04.206Z,60.12
2022-12-22T18:03:31.890Z,59.96
2022-12-22T18:05:59.963Z,60.04
2022-12-22T18:08:27.670Z,60.05
2022-12-22T18:10:55.632Z,60.16
2022-12-22T18:13:26.947Z,60.29
2022-12-22T18:15:57.759Z,60.14
2022-12-22T18:18:26.216Z,60.08
2022-12-22T18:21:07.606Z,59.82
2022-12-22T18:23:36.820Z,60.09
2022-12-22T18:26:08.413Z,60.34
2022-12-22T18:28:36.789Z,60.45
2022-12-22T18:31:04.591Z,60.06
2022-12-22T18:33:32.347Z,59.91
2022-12-22T18:36:00.254Z,59.73
2022-12-22T18:38:30.680Z,59.82
2022-12-22T18:40:58.487Z,60.21
2022-12-22T18:43:26.417Z,60.21
2022-12-22T18:45:54.255Z,60.16
2022-12-22T18:48:21.952Z,60.57
2022-12-22T18:50:49.911Z,61.56
2022-12-22T18:53:31.867Z,58.98
2022-12-22T18:56:00.322Z,55.33
2022-12-22T18:58:28.156Z,55.77
2022-12-22T19:00:56.462Z,58.63
2022-12-22T19:03:29.232Z,61.26
2022-12-22T19:05:57.767Z,64.20
2022-12-22T19:08:27.485Z,65.81
2022-12-22T19:10:56.075Z,61.96
2022-12-22T19:13:30.849Z,60.92
2022-12-22T19:15:58.666Z,59.09
2022-12-22T19:18:27.632Z,57.19
2022-12-22T19:20:56.243Z,58.37
2022-12-22T19:23:25.604Z,59.67
2022-12-22T19:26:02.169Z,60.67
2022-12-22T19:28:33.205Z,63.25
2022-12-22T19:31:01.042Z,66.00
2022-12-22T19:33:37.242Z,68.15
2022-12-22T19:36:05.566Z,63.94
2022-12-22T19:38:35.520Z,62.87
2022-12-22T19:41:04.372Z,62.40
2022-12-22T19:43:33.584Z,60.86
2022-12-22T19:46:01.305Z,60.26
2022-12-22T19:48:29.012Z,60.40
2022-12-22T19:50:56.735Z,60.13
2022-12-22T19:53:26.523Z,55.54
2022-12-22T19:55:56.816Z,53.62
2022-12-22T19:58:30.801Z,55.13
2022-12-22T20:00:58.959Z,56.72
2022-12-22T20:03:26.844Z,58.09
2022-12-22T20:05:54.595Z,60.98
2022-12-22T20:08:22.309Z,63.89
2022-12-22T20:10:54.609Z,68.32
2022-12-22T20:13:31.158Z,64.09
2022-12-22T20:15:59.516Z,62.30
2022-12-22T20:18:30.085Z,60.17
2022-12-22T20:21:07.711Z,56.31
2022-12-22T20:23:37.583Z,54.37
2022-12-22T20:26:14.814Z,55.66
2022-12-22T20:28:42.616Z,56.94
2022-12-22T20:31:13.508Z,59.14
2022-12-22T20:33:41.374Z,60.60
2022-12-22T20:36:32.209Z,64.80
2022-12-22T20:39:02.177Z,67.74
2022-12-22T20:41:29.889Z,62.37
2022-12-22T20:43:57.837Z,57.29
2022-12-22T20:46:28.613Z,55.48
2022-12-22T20:49:00.486Z,56.35
2022-12-22T20:51:30.775Z,57.85
2022-12-22T20:53:59.042Z,61.49
2022-12-22T20:56:29.857Z,64.92
2022-12-22T20:58:59.365Z,66.82
2022-12-22T21:04:48.734Z,59.26
2022-12-22T21:07:16.412Z,57.19
2022-12-22T21:09:44.182Z,58.47
2022-12-22T21:12:11.859Z,60.19
2022-12-22T21:14:39.883Z,64.56
2022-12-22T21:17:16.431Z,66.74
2022-12-22T21:19:44.343Z,64.35
2022-12-22T21:22:12.031Z,61.59
2022-12-22T21:24:41.815Z,60.55
2022-12-22T21:27:17.166Z,59.81
2022-12-22T21:29:44.916Z,60.59
2022-12-22T21:32:16.262Z,60.10
2022-12-22T21:34:43.933Z,58.29
2022-12-22T21:37:17.405Z,58.11
2022-12-22T21:39:45.456Z,59.29
2022-12-22T21:42:18.596Z,61.36
2022-12-22T21:44:46.512Z,63.71
2022-12-22T21:47:17.328Z,66.03
2022-12-22T21:49:45.129Z,65.96
2022-12-22T21:52:12.841Z,66.62
2022-12-22T21:54:40.575Z,66.74
2022-12-22T21:57:14.750Z,66.89
2022-12-22T21:59:42.517Z,67.10
2022-12-22T22:02:16.433Z,68.02
2022-12-22T22:04:48.370Z,68.92
2022-12-22T22:07:21.537Z,70.69
2022-12-22T22:09:49.184Z,67.83
2022-12-22T22:12:37.021Z,65.47
2022-12-22T22:15:06.600Z,62.63
2022-12-22T22:17:34.311Z,60.25
2022-12-22T22:20:02.179Z,57.73
2022-12-22T22:22:30.000Z,56.20
2022-12-22T22:24:57.795Z,57.80
2022-12-22T22:27:26.360Z,60.68
2022-12-22T22:29:53.969Z,64.68
2022-12-22T22:32:21.570Z,67.81
2022-12-22T22:34:49.477Z,65.55
2022-12-22T22:37:17.101Z,62.07
2022-12-22T22:39:44.853Z,60.02
2022-12-22T22:42:12.763Z,57.07
2022-12-22T22:44:40.433Z,56.12
2022-12-22T22:47:08.145Z,57.17
2022-12-22T22:49:35.794Z,59.43
2022-12-22T22:52:03.548Z,61.98
2022-12-22T22:54:32.783Z,66.42
2022-12-22T22:57:00.887Z,67.19
2022-12-22T22:59:28.541Z,68.47
2022-12-22T23:01:56.227Z,66.11
2022-12-22T23:04:24.030Z,63.03
2022-12-22T23:06:51.867Z,61.24
2022-12-22T23:09:19.567Z,59.96
2022-12-22T23:11:47.197Z,57.36
2022-12-22T23:14:14.908Z,57.78
2022-12-22T23:16:42.624Z,59.40
2022-12-22T23:19:10.473Z,60.66
2022-12-22T23:21:38.210Z,64.76
2022-12-22T23:34:33.217Z,66.57
2022-12-22T23:37:01.021Z,66.54
2022-12-22T23:39:28.706Z,65.87
2022-12-22T23:41:56.323Z,65.13
2022-12-22T23:44:23.922Z,64.61
2022-12-22T23:46:51.534Z,66.83
2022-12-22T23:49:19.379Z,63.80
2022-12-22T23:51:47.133Z,60.94
2022-12-22T23:54:14.767Z,60.96
2022-12-22T23:56:42.365Z,60.83
2022-12-22T23:59:09.990Z,61.33
